Aérodrome :
LOGIN :

S'inscrire | Disclaimer

   EN    FR    IT 

 










Légende :    VFR   VFR Marginal   IFR   IFR Intensif   IFR Très Intensif
Visi : 
Plafond : 
>= 8 km
>= 3000ft
5 à 8 km
1000 à 3000 ft
1500m à 5 km
500 à 1000 ft
800 à 1500m
200 à 500 ft
< 800m
< 200 ft
Symboles :   Orages  Brouillard  Fortes neiges  Fortes précipitations  Vent > 20 kt
SIGMETs :   Divers  Orages  Givrage  Turbulence  Onde Orograph.  Cendres Volcan.







- Altitude de l'aérodrome : 306 ft
- Code IATA : EMA
- Voir les cartes d'approche


EGNX - Nottingham East Midlands

METARs EXPIRÉS :
  • 241420Z 26011KT 9999 BKN026 20/14 Q1011
  • 241350Z 27008KT 9999 SCT023 BKN038 19/14 Q1011
  • 241320Z 28008KT 240V310 9999 BKN024 18/13 Q1012
  • 241250Z 26009KT 9999 BKN022 18/13 Q1012
  • 241220Z 27010KT 9999 BKN022 18/13 Q1012
  • 241150Z 27011KT 9999 BKN022 18/13 Q1012

TAF TAF EGNX
Valide du 24 à 12h jusqu'au 25 à 12h UTC


241056Z 2412/2512 26012KT 9999 BKN020
PROB30
TEMPO 2415/2421 8000 -RA
TEMPO 2506/2512 8000 -RA BKN014
ATIS : +44 1332 852 852 (ext 3201)
Pas de NOTAMs connus pour ce terrain.



MET'MAP, la Météo Aéronautique d'un coup d'oeil ! - Copyright ORBIFLY Décembre 2007 - Disclaimer

ORBIFLY MET'MAP TEAM :

Programmation & Développement : Alexandra Zaïnal
Conception & Développement : Baudouin d'Aumeries
Co-Programmation & Développement : Marc-Olivier Méhu
Soutien technique & logistique : Manuel Goepfert

Contact : metmap@orbifly.com




SOURCES & CREDITS :

   NOAA